sensor_id;sensor_type;location;lat;lon;timestamp;temperature;humidity
19174;DHT22;9719;49.322;8.536;2023-05-23T00:00:58;19.90;99.90
19174;DHT22;9719;49.322;8.536;2023-05-23T00:06:01;19.90;99.90
19174;DHT22;9719;49.322;8.536;2023-05-23T00:11:04;19.90;99.90
19174;DHT22;9719;49.322;8.536;2023-05-23T00:16:08;19.90;99.90
19174;DHT22;9719;49.322;8.536;2023-05-23T00:21:10;19.90;99.90
19174;DHT22;9719;49.322;8.536;2023-05-23T00:26:12;19.70;99.90
19174;DHT22;9719;49.322;8.536;2023-05-23T00:31:15;19.70;99.90
19174;DHT22;9719;49.322;8.536;2023-05-23T00:36:18;19.60;99.90
19174;DHT22;9719;49.322;8.536;2023-05-23T00:41:19;19.50;99.90
19174;DHT22;9719;49.322;8.536;2023-05-23T00:46:23;19.50;99.90
19174;DHT22;9719;49.322;8.536;2023-05-23T00:51:24;19.40;99.90
19174;DHT22;9719;49.322;8.536;2023-05-23T00:56:27;19.30;99.90
19174;DHT22;9719;49.322;8.536;2023-05-23T01:01:31;19.20;99.90
19174;DHT22;9719;49.322;8.536;2023-05-23T01:06:36;19.20;99.90
19174;DHT22;9719;49.322;8.536;2023-05-23T01:11:55;19.10;99.90
19174;DHT22;9719;49.322;8.536;2023-05-23T01:17:10;19.10;99.90
19174;DHT22;9719;49.322;8.536;2023-05-23T01:22:20;19.00;99.90
19174;DHT22;9719;49.322;8.536;2023-05-23T01:32:32;18.90;99.90
19174;DHT22;9719;49.322;8.536;2023-05-23T01:37:34;18.90;99.90
19174;DHT22;9719;49.322;8.536;2023-05-23T01:42:36;18.80;99.90
19174;DHT22;9719;49.322;8.536;2023-05-23T01:47:39;18.80;99.90
19174;DHT22;9719;49.322;8.536;2023-05-23T01:52:42;18.80;99.90
19174;DHT22;9719;49.322;8.536;2023-05-23T01:57:45;18.80;99.90
19174;DHT22;9719;49.322;8.536;2023-05-23T02:02:50;18.70;99.90
19174;DHT22;9719;49.322;8.536;2023-05-23T02:07:52;18.70;99.90
19174;DHT22;9719;49.322;8.536;2023-05-23T02:12:53;18.60;99.90
19174;DHT22;9719;49.322;8.536;2023-05-23T02:17:56;18.60;99.90
19174;DHT22;9719;49.322;8.536;2023-05-23T02:22:58;18.60;99.90
19174;DHT22;9719;49.322;8.536;2023-05-23T02:28:00;18.50;99.90
19174;DHT22;9719;49.322;8.536;2023-05-23T02:33:05;18.50;99.90
19174;DHT22;9719;49.322;8.536;2023-05-23T02:38:07;18.50;99.90
19174;DHT22;9719;49.322;8.536;2023-05-23T02:43:08;18.50;99.90
19174;DHT22;9719;49.322;8.536;2023-05-23T02:48:12;18.40;99.90
19174;DHT22;9719;49.322;8.536;2023-05-23T02:53:13;18.40;99.90
19174;DHT22;9719;49.322;8.536;2023-05-23T02:58:15;18.30;99.90
19174;DHT22;9719;49.322;8.536;2023-05-23T03:03:18;18.20;99.90
19174;DHT22;9719;49.322;8.536;2023-05-23T03:08:20;18.20;99.90
19174;DHT22;9719;49.322;8.536;2023-05-23T03:13:22;18.20;99.90
19174;DHT22;9719;49.322;8.536;2023-05-23T03:18:25;18.20;99.90
19174;DHT22;9719;49.322;8.536;2023-05-23T03:23:26;18.20;99.90
19174;DHT22;9719;49.322;8.536;2023-05-23T03:28:29;18.20;99.90
19174;DHT22;9719;49.322;8.536;2023-05-23T03:33:32;18.20;99.90
19174;DHT22;9719;49.322;8.536;2023-05-23T03:38:34;18.20;99.90
19174;DHT22;9719;49.322;8.536;2023-05-23T03:43:36;18.30;99.90
19174;DHT22;9719;49.322;8.536;2023-05-23T03:48:39;18.30;99.90
19174;DHT22;9719;49.322;8.536;2023-05-23T03:53:40;18.40;99.90
19174;DHT22;9719;49.322;8.536;2023-05-23T03:58:42;18.50;99.90
19174;DHT22;9719;49.322;8.536;2023-05-23T04:03:45;18.60;99.90
19174;DHT22;9719;49.322;8.536;2023-05-23T04:08:47;18.60;99.90
19174;DHT22;9719;49.322;8.536;2023-05-23T04:13:49;18.70;99.90
19174;DHT22;9719;49.322;8.536;2023-05-23T04:18:52;18.80;99.90
19174;DHT22;9719;49.322;8.536;2023-05-23T04:23:54;18.90;99.90
19174;DHT22;9719;49.322;8.536;2023-05-23T04:28:56;19.00;99.90
19174;DHT22;9719;49.322;8.536;2023-05-23T04:33:59;19.00;99.90
19174;DHT22;9719;49.322;8.536;2023-05-23T04:39:01;19.00;99.90
19174;DHT22;9719;49.322;8.536;2023-05-23T04:44:03;19.10;99.90
19174;DHT22;9719;49.322;8.536;2023-05-23T04:49:06;19.20;99.90
19174;DHT22;9719;49.322;8.536;2023-05-23T04:54:08;19.30;99.90
19174;DHT22;9719;49.322;8.536;2023-05-23T04:59:10;19.30;99.90
19174;DHT22;9719;49.322;8.536;2023-05-23T05:04:14;19.40;99.90
19174;DHT22;9719;49.322;8.536;2023-05-23T05:09:15;19.50;99.90
19174;DHT22;9719;49.322;8.536;2023-05-23T05:14:17;19.50;99.90
19174;DHT22;9719;49.322;8.536;2023-05-23T05:19:20;19.60;99.90
19174;DHT22;9719;49.322;8.536;2023-05-23T05:24:22;19.70;99.90
19174;DHT22;9719;49.322;8.536;2023-05-23T05:29:24;19.90;99.90
19174;DHT22;9719;49.322;8.536;2023-05-23T05:34:27;19.90;99.90
19174;DHT22;9719;49.322;8.536;2023-05-23T05:39:29;20.00;99.90
19174;DHT22;9719;49.322;8.536;2023-05-23T05:44:30;20.10;99.90
19174;DHT22;9719;49.322;8.536;2023-05-23T05:49:33;20.30;99.90
19174;DHT22;9719;49.322;8.536;2023-05-23T05:54:35;20.40;99.90
19174;DHT22;9719;49.322;8.536;2023-05-23T05:59:37;20.50;99.90
19174;DHT22;9719;49.322;8.536;2023-05-23T06:04:40;20.50;99.90
19174;DHT22;9719;49.322;8.536;2023-05-23T06:09:42;20.50;99.90
19174;DHT22;9719;49.322;8.536;2023-05-23T06:14:44;20.30;99.90
19174;DHT22;9719;49.322;8.536;2023-05-23T06:19:47;20.30;99.90
19174;DHT22;9719;49.322;8.536;2023-05-23T06:24:48;20.40;99.90
19174;DHT22;9719;49.322;8.536;2023-05-23T06:29:50;20.40;99.90
19174;DHT22;9719;49.322;8.536;2023-05-23T06:34:53;20.40;99.90
19174;DHT22;9719;49.322;8.536;2023-05-23T06:39:55;20.40;99.90
19174;DHT22;9719;49.322;8.536;2023-05-23T06:44:57;20.50;99.90
19174;DHT22;9719;49.322;8.536;2023-05-23T06:50:00;20.60;99.90
19174;DHT22;9719;49.322;8.536;2023-05-23T06:55:01;20.70;99.90
19174;DHT22;9719;49.322;8.536;2023-05-23T07:00:05;20.70;99.90
19174;DHT22;9719;49.322;8.536;2023-05-23T07:05:08;20.80;99.90
19174;DHT22;9719;49.322;8.536;2023-05-23T07:10:10;21.10;99.90
19174;DHT22;9719;49.322;8.536;2023-05-23T07:15:12;21.30;99.90
19174;DHT22;9719;49.322;8.536;2023-05-23T07:20:15;21.40;99.90
19174;DHT22;9719;49.322;8.536;2023-05-23T07:25:17;21.20;99.90
19174;DHT22;9719;49.322;8.536;2023-05-23T07:30:19;21.10;99.90
19174;DHT22;9719;49.322;8.536;2023-05-23T07:35:23;21.20;99.90
19174;DHT22;9719;49.322;8.536;2023-05-23T07:40:25;21.30;99.90
19174;DHT22;9719;49.322;8.536;2023-05-23T07:45:27;21.40;99.90
19174;DHT22;9719;49.322;8.536;2023-05-23T07:50:30;21.50;99.90
19174;DHT22;9719;49.322;8.536;2023-05-23T07:55:32;21.60;99.90
19174;DHT22;9719;49.322;8.536;2023-05-23T08:00:33;21.60;99.90
19174;DHT22;9719;49.322;8.536;2023-05-23T08:05:37;21.70;99.90
19174;DHT22;9719;49.322;8.536;2023-05-23T08:10:39;21.70;99.90
19174;DHT22;9719;49.322;8.536;2023-05-23T08:15:41;21.70;99.90
19174;DHT22;9719;49.322;8.536;2023-05-23T08:20:44;22.10;99.90
19174;DHT22;9719;49.322;8.536;2023-05-23T08:25:46;22.40;99.90
19174;DHT22;9719;49.322;8.536;2023-05-23T08:30:48;22.50;99.90
19174;DHT22;9719;49.322;8.536;2023-05-23T08:35:51;22.60;99.90
19174;DHT22;9719;49.322;8.536;2023-05-23T08:40:53;22.50;99.90
19174;DHT22;9719;49.322;8.536;2023-05-23T08:45:56;22.70;99.90
19174;DHT22;9719;49.322;8.536;2023-05-23T08:51:00;22.90;99.90
19174;DHT22;9719;49.322;8.536;2023-05-23T08:56:03;23.10;98.00
19174;DHT22;9719;49.322;8.536;2023-05-23T09:01:05;23.00;96.50
19174;DHT22;9719;49.322;8.536;2023-05-23T09:06:09;23.10;96.30
19174;DHT22;9719;49.322;8.536;2023-05-23T09:11:12;23.20;96.40
19174;DHT22;9719;49.322;8.536;2023-05-23T09:16:15;23.10;95.50
19174;DHT22;9719;49.322;8.536;2023-05-23T09:21:19;23.10;95.20
19174;DHT22;9719;49.322;8.536;2023-05-23T09:26:21;23.20;95.10
19174;DHT22;9719;49.322;8.536;2023-05-23T09:31:25;23.30;95.10
19174;DHT22;9719;49.322;8.536;2023-05-23T09:36:29;23.60;95.80
19174;DHT22;9719;49.322;8.536;2023-05-23T09:41:33;24.10;95.90
19174;DHT22;9719;49.322;8.536;2023-05-23T09:46:36;24.50;93.10
19174;DHT22;9719;49.322;8.536;2023-05-23T09:51:39;24.40;91.80
19174;DHT22;9719;49.322;8.536;2023-05-23T09:56:41;24.30;91.20
19174;DHT22;9719;49.322;8.536;2023-05-23T10:01:44;24.50;91.70
19174;DHT22;9719;49.322;8.536;2023-05-23T10:06:53;24.40;90.60
19174;DHT22;9719;49.322;8.536;2023-05-23T10:12:44;24.20;90.50
19174;DHT22;9719;49.322;8.536;2023-05-23T10:18:00;23.90;87.10
19174;DHT22;9719;49.322;8.536;2023-05-23T10:23:04;23.80;89.30
19174;DHT22;9719;49.322;8.536;2023-05-23T10:28:06;23.40;90.40
19174;DHT22;9719;49.322;8.536;2023-05-23T10:33:09;23.70;91.30
19174;DHT22;9719;49.322;8.536;2023-05-23T10:38:24;24.30;90.70
19174;DHT22;9719;49.322;8.536;2023-05-23T10:43:32;24.90;87.50
19174;DHT22;9719;49.322;8.536;2023-05-23T10:48:40;24.80;85.30
19174;DHT22;9719;49.322;8.536;2023-05-23T10:53:44;24.50;86.20
19174;DHT22;9719;49.322;8.536;2023-05-23T10:58:50;24.10;86.10
19174;DHT22;9719;49.322;8.536;2023-05-23T11:03:52;23.90;88.80
19174;DHT22;9719;49.322;8.536;2023-05-23T11:09:01;23.50;88.90
19174;DHT22;9719;49.322;8.536;2023-05-23T11:14:03;23.10;90.20
19174;DHT22;9719;49.322;8.536;2023-05-23T11:19:24;23.00;91.30
19174;DHT22;9719;49.322;8.536;2023-05-23T11:24:50;23.10;91.30
19174;DHT22;9719;49.322;8.536;2023-05-23T11:30:00;23.50;92.30
19174;DHT22;9719;49.322;8.536;2023-05-23T11:35:05;24.10;91.50
19174;DHT22;9719;49.322;8.536;2023-05-23T11:40:31;24.70;92.00
19174;DHT22;9719;49.322;8.536;2023-05-23T11:45:34;25.20;88.10
19174;DHT22;9719;49.322;8.536;2023-05-23T11:50:47;24.80;87.70
19174;DHT22;9719;49.322;8.536;2023-05-23T11:55:51;24.40;88.20
19174;DHT22;9719;49.322;8.536;2023-05-23T12:00:58;24.30;90.10
19174;DHT22;9719;49.322;8.536;2023-05-23T12:06:00;24.60;89.90
19174;DHT22;9719;49.322;8.536;2023-05-23T12:11:03;25.00;89.20
19174;DHT22;9719;49.322;8.536;2023-05-23T12:16:06;25.40;88.90
19174;DHT22;9719;49.322;8.536;2023-05-23T12:21:08;25.40;88.40
19174;DHT22;9719;49.322;8.536;2023-05-23T12:26:11;25.30;86.10
19174;DHT22;9719;49.322;8.536;2023-05-23T12:31:15;25.60;84.50
19174;DHT22;9719;49.322;8.536;2023-05-23T12:36:21;25.70;84.80
19174;DHT22;9719;49.322;8.536;2023-05-23T12:41:26;25.70;84.50
19174;DHT22;9719;49.322;8.536;2023-05-23T12:46:27;26.10;85.30
19174;DHT22;9719;49.322;8.536;2023-05-23T12:51:29;26.30;84.30
19174;DHT22;9719;49.322;8.536;2023-05-23T12:56:32;26.00;82.40
19174;DHT22;9719;49.322;8.536;2023-05-23T13:01:34;25.70;83.50
19174;DHT22;9719;49.322;8.536;2023-05-23T13:06:36;25.60;83.20
19174;DHT22;9719;49.322;8.536;2023-05-23T13:11:40;25.40;82.40
19174;DHT22;9719;49.322;8.536;2023-05-23T13:16:42;25.40;83.50
19174;DHT22;9719;49.322;8.536;2023-05-23T13:21:44;25.40;82.60
19174;DHT22;9719;49.322;8.536;2023-05-23T13:26:48;25.40;82.10
19174;DHT22;9719;49.322;8.536;2023-05-23T13:31:49;25.40;82.30
19174;DHT22;9719;49.322;8.536;2023-05-23T13:36:52;25.40;83.00
19174;DHT22;9719;49.322;8.536;2023-05-23T13:41:55;25.80;83.50
19174;DHT22;9719;49.322;8.536;2023-05-23T13:46:59;26.40;84.10
19174;DHT22;9719;49.322;8.536;2023-05-23T13:52:10;26.90;82.70
19174;DHT22;9719;49.322;8.536;2023-05-23T13:57:13;27.10;81.40
19174;DHT22;9719;49.322;8.536;2023-05-23T14:02:15;27.20;80.50
19174;DHT22;9719;49.322;8.536;2023-05-23T14:07:17;27.30;78.10
19174;DHT22;9719;49.322;8.536;2023-05-23T14:12:20;26.70;77.80
19174;DHT22;9719;49.322;8.536;2023-05-23T14:17:22;26.00;78.00
19174;DHT22;9719;49.322;8.536;2023-05-23T14:22:24;25.80;78.80
19174;DHT22;9719;49.322;8.536;2023-05-23T14:27:27;25.80;80.00
19174;DHT22;9719;49.322;8.536;2023-05-23T14:32:28;26.30;79.40
19174;DHT22;9719;49.322;8.536;2023-05-23T14:37:32;26.20;77.90
19174;DHT22;9719;49.322;8.536;2023-05-23T14:42:35;26.20;78.00
19174;DHT22;9719;49.322;8.536;2023-05-23T14:47:38;25.70;76.40
19174;DHT22;9719;49.322;8.536;2023-05-23T14:52:39;25.00;76.30
19174;DHT22;9719;49.322;8.536;2023-05-23T14:57:43;24.30;77.40
19174;DHT22;9719;49.322;8.536;2023-05-23T15:02:44;24.10;77.80
19174;DHT22;9719;49.322;8.536;2023-05-23T15:07:46;24.00;78.60
19174;DHT22;9719;49.322;8.536;2023-05-23T15:12:49;24.00;80.00
19174;DHT22;9719;49.322;8.536;2023-05-23T15:17:51;24.10;80.00
19174;DHT22;9719;49.322;8.536;2023-05-23T15:22:53;24.10;81.10
19174;DHT22;9719;49.322;8.536;2023-05-23T15:27:56;24.30;81.50
19174;DHT22;9719;49.322;8.536;2023-05-23T15:32:57;24.60;82.30
19174;DHT22;9719;49.322;8.536;2023-05-23T15:37:59;24.70;80.50
19174;DHT22;9719;49.322;8.536;2023-05-23T15:43:02;24.70;80.20
19174;DHT22;9719;49.322;8.536;2023-05-23T15:48:03;24.40;79.30
19174;DHT22;9719;49.322;8.536;2023-05-23T15:53:05;24.10;80.10
19174;DHT22;9719;49.322;8.536;2023-05-23T15:58:08;23.90;82.00
19174;DHT22;9719;49.322;8.536;2023-05-23T16:03:10;23.70;82.00
19174;DHT22;9719;49.322;8.536;2023-05-23T16:08:12;23.50;82.30
19174;DHT22;9719;49.322;8.536;2023-05-23T16:13:15;23.30;83.10
19174;DHT22;9719;49.322;8.536;2023-05-23T16:18:16;23.20;83.10
19174;DHT22;9719;49.322;8.536;2023-05-23T16:23:18;22.90;83.30
19174;DHT22;9719;49.322;8.536;2023-05-23T16:28:21;22.70;84.60
19174;DHT22;9719;49.322;8.536;2023-05-23T16:33:23;22.60;86.00
19174;DHT22;9719;49.322;8.536;2023-05-23T16:38:25;22.40;85.80
19174;DHT22;9719;49.322;8.536;2023-05-23T16:43:28;22.20;86.20
19174;DHT22;9719;49.322;8.536;2023-05-23T16:48:30;22.00;87.10
19174;DHT22;9719;49.322;8.536;2023-05-23T16:53:31;21.90;88.20
19174;DHT22;9719;49.322;8.536;2023-05-23T16:58:34;21.80;88.90
19174;DHT22;9719;49.322;8.536;2023-05-23T17:03:38;21.70;89.90
19174;DHT22;9719;49.322;8.536;2023-05-23T17:08:40;21.60;89.90
19174;DHT22;9719;49.322;8.536;2023-05-23T17:13:43;21.40;89.50
19174;DHT22;9719;49.322;8.536;2023-05-23T17:18:45;21.20;90.10
19174;DHT22;9719;49.322;8.536;2023-05-23T17:23:47;21.20;90.20
19174;DHT22;9719;49.322;8.536;2023-05-23T17:28:50;21.20;90.50
19174;DHT22;9719;49.322;8.536;2023-05-23T17:33:51;21.20;90.50
19174;DHT22;9719;49.322;8.536;2023-05-23T17:38:53;21.10;90.80
19174;DHT22;9719;49.322;8.536;2023-05-23T17:43:56;21.00;90.70
19174;DHT22;9719;49.322;8.536;2023-05-23T17:48:57;21.00;90.90
19174;DHT22;9719;49.322;8.536;2023-05-23T17:53:59;20.80;90.80
19174;DHT22;9719;49.322;8.536;2023-05-23T17:59:03;20.70;90.90
19174;DHT22;9719;49.322;8.536;2023-05-23T18:04:05;20.40;91.00
19174;DHT22;9719;49.322;8.536;2023-05-23T18:09:07;20.30;91.30
19174;DHT22;9719;49.322;8.536;2023-05-23T18:14:10;20.10;91.30
19174;DHT22;9719;49.322;8.536;2023-05-23T18:19:12;20.00;91.50
19174;DHT22;9719;49.322;8.536;2023-05-23T18:24:13;19.90;92.00
19174;DHT22;9719;49.322;8.536;2023-05-23T18:29:16;19.80;92.10
19174;DHT22;9719;49.322;8.536;2023-05-23T18:34:19;19.60;92.50
19174;DHT22;9719;49.322;8.536;2023-05-23T18:39:21;19.50;92.70
19174;DHT22;9719;49.322;8.536;2023-05-23T18:44:24;19.40;93.00
19174;DHT22;9719;49.322;8.536;2023-05-23T18:49:26;19.20;93.20
19174;DHT22;9719;49.322;8.536;2023-05-23T18:54:28;19.10;93.20
19174;DHT22;9719;49.322;8.536;2023-05-23T18:59:31;19.10;93.40
19174;DHT22;9719;49.322;8.536;2023-05-23T19:04:32;19.00;93.80
19174;DHT22;9719;49.322;8.536;2023-05-23T19:09:34;18.80;93.90
19174;DHT22;9719;49.322;8.536;2023-05-23T19:14:37;18.70;93.20
19174;DHT22;9719;49.322;8.536;2023-05-23T19:19:39;18.60;92.70
19174;DHT22;9719;49.322;8.536;2023-05-23T19:24:40;18.50;92.40
19174;DHT22;9719;49.322;8.536;2023-05-23T19:29:44;18.40;91.90
19174;DHT22;9719;49.322;8.536;2023-05-23T19:34:45;18.40;91.80
19174;DHT22;9719;49.322;8.536;2023-05-23T19:39:47;18.30;92.00
19174;DHT22;9719;49.322;8.536;2023-05-23T19:44:50;18.30;91.80
19174;DHT22;9719;49.322;8.536;2023-05-23T19:49:52;18.20;91.60
19174;DHT22;9719;49.322;8.536;2023-05-23T19:54:54;18.10;91.60
19174;DHT22;9719;49.322;8.536;2023-05-23T19:59:57;18.00;91.50
19174;DHT22;9719;49.322;8.536;2023-05-23T20:04:59;18.00;91.60
19174;DHT22;9719;49.322;8.536;2023-05-23T20:10:01;17.80;91.60
19174;DHT22;9719;49.322;8.536;2023-05-23T20:15:04;17.70;91.60
19174;DHT22;9719;49.322;8.536;2023-05-23T20:20:07;17.60;91.70
19174;DHT22;9719;49.322;8.536;2023-05-23T20:25:09;17.60;91.60
19174;DHT22;9719;49.322;8.536;2023-05-23T20:30:13;17.50;91.60
19174;DHT22;9719;49.322;8.536;2023-05-23T20:35:14;17.40;91.80
19174;DHT22;9719;49.322;8.536;2023-05-23T20:40:16;17.30;91.80
19174;DHT22;9719;49.322;8.536;2023-05-23T20:45:19;17.20;92.10
19174;DHT22;9719;49.322;8.536;2023-05-23T20:50:21;17.10;92.20
19174;DHT22;9719;49.322;8.536;2023-05-23T20:55:23;17.00;92.10
19174;DHT22;9719;49.322;8.536;2023-05-23T21:00:26;16.90;92.40
19174;DHT22;9719;49.322;8.536;2023-05-23T21:05:28;16.80;92.30
19174;DHT22;9719;49.322;8.536;2023-05-23T21:10:30;16.60;92.20
19174;DHT22;9719;49.322;8.536;2023-05-23T21:15:33;16.60;92.30
19174;DHT22;9719;49.322;8.536;2023-05-23T21:20:35;16.50;92.20
19174;DHT22;9719;49.322;8.536;2023-05-23T21:25:37;16.40;92.20
19174;DHT22;9719;49.322;8.536;2023-05-23T21:30:39;16.30;92.30
19174;DHT22;9719;49.322;8.536;2023-05-23T21:35:41;16.20;92.20
19174;DHT22;9719;49.322;8.536;2023-05-23T21:40:44;16.20;92.30
19174;DHT22;9719;49.322;8.536;2023-05-23T21:45:47;16.20;92.50
19174;DHT22;9719;49.322;8.536;2023-05-23T21:50:49;16.10;92.70
19174;DHT22;9719;49.322;8.536;2023-05-23T21:55:50;16.00;93.10
19174;DHT22;9719;49.322;8.536;2023-05-23T22:00:53;16.00;93.10
19174;DHT22;9719;49.322;8.536;2023-05-23T22:05:55;15.90;93.70
19174;DHT22;9719;49.322;8.536;2023-05-23T22:10:57;15.90;93.50
19174;DHT22;9719;49.322;8.536;2023-05-23T22:16:00;15.80;93.50
19174;DHT22;9719;49.322;8.536;2023-05-23T22:21:03;15.70;93.40
19174;DHT22;9719;49.322;8.536;2023-05-23T22:26:05;15.70;93.40
19174;DHT22;9719;49.322;8.536;2023-05-23T22:31:08;15.60;93.50
19174;DHT22;9719;49.322;8.536;2023-05-23T22:36:09;15.50;93.60
19174;DHT22;9719;49.322;8.536;2023-05-23T22:41:11;15.50;93.90
19174;DHT22;9719;49.322;8.536;2023-05-23T22:46:15;15.40;94.40
19174;DHT22;9719;49.322;8.536;2023-05-23T22:51:17;15.40;94.60
19174;DHT22;9719;49.322;8.536;2023-05-23T22:56:19;15.30;95.40
19174;DHT22;9719;49.322;8.536;2023-05-23T23:01:22;15.30;95.10
19174;DHT22;9719;49.322;8.536;2023-05-23T23:06:24;15.30;95.40
19174;DHT22;9719;49.322;8.536;2023-05-23T23:11:26;15.40;95.70
19174;DHT22;9719;49.322;8.536;2023-05-23T23:16:28;15.40;95.70
19174;DHT22;9719;49.322;8.536;2023-05-23T23:21:31;15.50;96.10
19174;DHT22;9719;49.322;8.536;2023-05-23T23:26:32;15.50;96.30
19174;DHT22;9719;49.322;8.536;2023-05-23T23:31:35;15.50;96.30
19174;DHT22;9719;49.322;8.536;2023-05-23T23:36:37;15.60;96.20
19174;DHT22;9719;49.322;8.536;2023-05-23T23:41:39;15.60;96.10
19174;DHT22;9719;49.322;8.536;2023-05-23T23:46:42;15.50;96.20
19174;DHT22;9719;49.322;8.536;2023-05-23T23:51:44;15.40;96.30
19174;DHT22;9719;49.322;8.536;2023-05-23T23:56:45;15.40;96.50
